Time;durP1;ratioP1;P1;durP2;ratioP2;P2;SDS_P1;SDS_P2;PMS_P1;PMS_P2;Temp;Humidity;BMP_temperature;BMP_pressure;BME280_temperature;BME280_humidity;BME280_pressure;Samples;Min_cycle;Max_cycle;Signal;HPM_P1;HPM_P2
2021/07/04 00:01:39;;;;;;;12.30;8.63;;;;;;;20.00;78.76;99213.78;1682238;84;21537;-76
2021/07/04 00:04:05;;;;;;;9.10;7.85;;;;;;;20.01;78.70;99214.09;1672056;84;22559;-76
2021/07/04 00:06:31;;;;;;;8.55;7.62;;;;;;;20.02;78.68;99210.37;1676432;84;21565;-78
2021/07/04 00:08:59;;;;;;;8.38;7.28;;;;;;;20.03;78.67;99212.53;1696197;84;21051;-77
2021/07/04 00:11:25;;;;;;;9.25;8.18;;;;;;;20.03;78.70;99203.15;1674997;84;21040;-77
2021/07/04 00:13:53;;;;;;;9.95;8.00;;;;;;;20.01;78.69;99205.53;1692127;84;21029;-77
2021/07/04 00:16:20;;;;;;;8.33;7.42;;;;;;;19.98;78.60;99207.30;1678014;84;21840;-77
2021/07/04 00:18:48;;;;;;;9.48;7.83;;;;;;;19.94;78.63;99206.05;1672194;84;21013;-77
2021/07/04 00:21:15;;;;;;;9.78;7.97;;;;;;;19.90;78.73;99204.84;1679019;84;21073;-77
2021/07/04 00:23:42;;;;;;;10.85;8.10;;;;;;;19.89;78.74;99202.38;1670485;84;21558;-77
2021/07/04 00:26:09;;;;;;;9.65;8.45;;;;;;;19.87;78.63;99201.74;1678020;84;21387;-76
2021/07/04 00:28:35;;;;;;;8.95;8.05;;;;;;;19.86;78.64;99200.10;1687878;84;22802;-76
2021/07/04 00:31:02;;;;;;;9.25;7.90;;;;;;;19.81;78.63;99202.08;1698350;84;21036;-76
2021/07/04 00:33:28;;;;;;;7.70;6.90;;;;;;;19.76;78.62;99195.17;1698226;84;21203;-76
2021/07/04 00:35:55;;;;;;;9.30;7.90;;;;;;;19.70;78.71;99200.87;1684669;84;21069;-77
2021/07/04 00:38:22;;;;;;;8.40;7.60;;;;;;;19.66;78.75;99197.47;1698350;84;21052;-76
2021/07/04 00:40:49;;;;;;;10.15;7.22;;;;;;;19.62;78.79;99197.08;1697490;84;22614;-77
2021/07/04 00:43:16;;;;;;;9.20;7.35;;;;;;;19.60;78.83;99196.98;1670449;85;21497;-77
2021/07/04 00:45:43;;;;;;;9.50;6.87;;;;;;;19.56;78.94;99197.08;1653857;85;21029;-76
2021/07/04 00:48:09;;;;;;;8.13;6.55;;;;;;;19.56;79.00;99195.73;1676291;85;21002;-76
2021/07/04 00:50:37;;;;;;;8.35;7.10;;;;;;;19.56;79.00;99195.73;1681167;85;21108;-76
2021/07/04 00:53:05;;;;;;;11.05;7.00;;;;;;;19.56;79.04;99195.73;1668327;85;21899;-76
2021/07/04 00:55:33;;;;;;;9.98;6.00;;;;;;;19.54;79.04;99184.38;1680005;85;21026;-77
2021/07/04 00:58:02;;;;;;;8.78;5.90;;;;;;;19.53;79.14;99182.22;1671029;85;21065;-76
2021/07/04 01:00:32;;;;;;;7.10;5.90;;;;;;;19.50;79.28;99186.66;1654903;85;21420;-76
2021/07/04 01:02:59;;;;;;;7.72;5.67;;;;;;;19.50;79.41;99184.50;1634602;86;21005;-77
2021/07/04 01:05:31;;;;;;;6.25;5.12;;;;;;;19.53;79.51;99185.42;1657076;85;21781;-77
2021/07/04 01:07:58;;;;;;;7.10;5.47;;;;;;;19.56;79.53;99189.04;1679284;85;20978;-76
2021/07/04 01:10:27;;;;;;;6.25;5.62;;;;;;;19.55;79.60;99188.70;1661812;85;21053;-76
2021/07/04 01:12:57;;;;;;;6.00;4.90;;;;;;;19.57;79.63;99192.02;1676131;85;21538;-77
2021/07/04 01:15:27;;;;;;;6.70;5.42;;;;;;;19.57;79.65;99196.04;1660210;85;21425;-76
2021/07/04 01:17:59;;;;;;;6.55;5.75;;;;;;;19.59;79.68;99196.65;1666954;85;21828;-77
2021/07/04 01:20:27;;;;;;;6.03;5.37;;;;;;;19.60;79.66;99200.48;1645394;85;21073;-77
2021/07/04 01:23:08;;;;;;;8.05;5.53;;;;;;;19.60;79.62;99204.50;1654642;85;21021;-77
2021/07/04 01:25:45;;;;;;;7.17;5.60;;;;;;;19.63;79.54;99210.77;1663285;85;28793;-76
2021/07/04 01:28:12;;;;;;;6.55;5.37;;;;;;;19.64;79.44;99212.94;1680810;85;21128;-78
2021/07/04 01:30:40;;;;;;;11.15;5.78;;;;;;;19.63;79.42;99220.14;1646915;85;21860;-77
2021/07/04 01:33:07;;;;;;;7.10;5.55;;;;;;;19.64;79.37;99223.65;1672503;85;20960;-77
2021/07/04 01:35:34;;;;;;;6.92;5.62;;;;;;;19.63;79.32;99220.66;1670581;84;21014;-76
2021/07/04 01:38:01;;;;;;;7.62;5.47;;;;;;;19.63;79.23;99225.50;1667918;86;21449;-76
2021/07/04 01:40:30;;;;;;;5.80;5.20;;;;;;;19.63;79.15;99224.16;1674929;84;21407;-76
2021/07/04 01:42:56;;;;;;;6.25;5.65;;;;;;;19.63;79.08;99224.16;1640127;84;22682;-76
2021/07/04 01:45:23;;;;;;;6.97;5.78;;;;;;;19.62;78.98;99227.05;1668117;84;21551;-76
2021/07/04 01:47:53;;;;;;;7.40;5.92;;;;;;;19.62;78.96;99229.73;1677259;84;21028;-76
2021/07/04 01:50:28;;;;;;;8.18;5.83;;;;;;;19.60;78.89;99229.13;1693647;84;20980;-76
2021/07/04 01:52:55;;;;;;;7.03;6.10;;;;;;;19.56;78.89;99224.68;1668847;84;21085;-77
2021/07/04 01:55:24;;;;;;;7.28;5.87;;;;;;;19.55;78.91;99229.70;1729577;82;21829;-76
2021/07/04 01:57:52;;;;;;;7.50;5.90;;;;;;;19.54;78.92;99232.59;1736422;82;21032;-76
2021/07/04 02:00:28;;;;;;;9.73;5.97;;;;;;;19.53;78.92;99240.32;1733641;82;20993;-76
2021/07/04 02:03:02;;;;;;;6.53;5.80;;;;;;;19.50;78.93;99238.06;1708953;82;20954;-76
2021/07/04 02:05:31;;;;;;;7.47;6.10;;;;;;;19.44;78.97;99227.14;1699892;82;20973;-76
2021/07/04 02:07:58;;;;;;;7.65;5.87;;;;;;;19.39;79.03;99228.77;1696935;82;22231;-76
2021/07/04 02:10:32;;;;;;;8.35;6.25;;;;;;;19.35;79.16;99227.03;1706700;82;20989;-76
2021/07/04 02:13:01;;;;;;;6.78;5.90;;;;;;;19.32;79.21;99224.78;1730275;82;21067;-76
2021/07/04 02:15:31;;;;;;;10.80;6.00;;;;;;;19.28;79.26;99224.87;1707128;82;20966;-76
2021/07/04 02:18:07;;;;;;;9.33;6.12;;;;;;;19.24;79.23;99225.50;1728184;82;21020;-76
2021/07/04 02:20:41;;;;;;;6.28;5.67;;;;;;;19.21;79.32;99233.44;1734687;82;21862;-76
2021/07/04 02:23:25;;;;;;;6.22;5.62;;;;;;;19.21;79.52;99236.63;1711465;82;20962;-76
2021/07/04 02:26:10;;;;;;;6.80;5.97;;;;;;;19.20;79.71;99245.14;1728013;82;20949;-77
2021/07/04 02:28:38;;;;;;;5.87;5.28;;;;;;;19.19;79.91;99256.88;1733677;82;21028;-72
2021/07/04 02:31:06;;;;;;;8.88;6.00;;;;;;;19.18;79.93;99252.56;1732908;82;21528;-76
2021/07/04 02:33:33;;;;;;;6.67;5.60;;;;;;;19.19;80.16;99259.56;1706568;82;22593;-76
2021/07/04 02:36:01;;;;;;;6.97;6.03;;;;;;;19.18;80.24;99267.28;1706702;83;20985;-76
2021/07/04 02:38:28;;;;;;;7.97;6.12;;;;;;;19.20;80.31;99273.25;1706617;84;20950;-76
2021/07/04 02:40:55;;;;;;;7.05;5.83;;;;;;;19.19;80.35;99271.61;1706433;82;21423;-77
2021/07/04 02:43:24;;;;;;;6.78;5.97;;;;;;;19.20;80.42;99270.57;1732911;82;21001;-76
2021/07/04 02:45:53;;;;;;;7.20;6.50;;;;;;;19.20;80.50;99264.39;1736073;82;21841;-76
2021/07/04 02:48:20;;;;;;;7.60;6.45;;;;;;;19.19;80.64;99271.61;1735980;82;20930;-76
2021/07/04 02:50:52;;;;;;;9.55;6.05;;;;;;;19.18;80.73;99277.98;1736074;81;27243;-76
2021/07/04 02:53:21;;;;;;;8.50;6.62;;;;;;;19.15;80.80;99283.24;1735170;82;20949;-76
2021/07/04 02:55:49;;;;;;;10.28;6.92;;;;;;;19.15;80.93;99287.26;1712824;82;21006;-76
2021/07/04 02:58:17;;;;;;;7.90;7.08;;;;;;;19.18;81.01;99281.18;1706620;84;21916;-76
2021/07/04 03:00:45;;;;;;;9.15;7.28;;;;;;;19.20;81.14;99293.33;1735445;82;21480;-76
2021/07/04 03:03:13;;;;;;;9.23;6.50;;;;;;;19.21;81.26;99295.00;1708841;82;21072;-75
2021/07/04 03:05:43;;;;;;;9.53;6.92;;;;;;;19.22;81.31;99297.16;1706504;84;21045;-76
2021/07/04 03:08:09;;;;;;;7.70;6.90;;;;;;;19.23;81.33;99307.66;1706642;83;21005;-76
2021/07/04 03:10:36;;;;;;;8.70;7.80;;;;;;;19.25;81.40;99304.78;1701720;82;22284;-76
2021/07/04 03:13:03;;;;;;;8.63;7.72;;;;;;;19.26;81.54;99303.23;1734707;82;21489;-76
2021/07/04 03:15:32;;;;;;;9.28;7.35;;;;;;;19.28;81.62;99313.22;1734897;82;21457;-76
2021/07/04 03:17:59;;;;;;;9.68;7.55;;;;;;;19.33;81.71;99312.63;1708729;82;21405;-76
2021/07/04 03:20:28;;;;;;;10.90;7.83;;;;;;;19.37;81.83;99309.83;1712266;82;20970;-76
2021/07/04 03:22:56;;;;;;;8.40;7.37;;;;;;;19.42;81.87;99310.06;1696375;83;21825;-76
2021/07/04 03:25:24;;;;;;;10.13;7.80;;;;;;;19.47;81.90;99302.73;1732789;82;21006;-76
2021/07/04 03:27:50;;;;;;;8.40;7.50;;;;;;;19.53;82.02;99307.28;1735673;82;20954;-76
2021/07/04 03:30:20;;;;;;;11.57;7.95;;;;;;;19.57;82.11;99307.20;1736130;82;20938;-76
2021/07/04 03:32:48;;;;;;;8.50;7.42;;;;;;;19.58;82.11;99306.98;1732052;82;21012;-77
2021/07/04 03:35:17;;;;;;;9.58;8.13;;;;;;;19.62;82.14;99304.73;1736007;81;21798;-76
2021/07/04 03:37:45;;;;;;;9.50;7.65;;;;;;;19.65;82.26;99306.99;1714916;82;21396;-76
2021/07/04 03:40:18;;;;;;;9.28;8.33;;;;;;;19.67;82.24;99303.07;1735912;81;21021;-76
2021/07/04 03:42:44;;;;;;;10.70;8.15;;;;;;;19.74;82.28;99313.80;1711729;82;21052;-76
2021/07/04 03:45:12;;;;;;;9.15;8.18;;;;;;;19.78;82.36;99311.00;1706576;84;20953;-76
2021/07/04 03:47:40;;;;;;;10.13;8.05;;;;;;;19.81;82.39;99311.95;1727191;82;21746;-76
2021/07/04 03:50:10;;;;;;;10.95;8.20;;;;;;;19.88;82.42;99314.59;1715996;82;20949;-76
2021/07/04 03:52:41;;;;;;;9.33;8.03;;;;;;;19.95;82.45;99302.84;1733813;82;20997;-77
2021/07/04 03:55:11;;;;;;;9.65;8.68;;;;;;;20.07;82.54;99296.84;1712529;82;20957;-77
2021/07/04 03:57:41;;;;;;;10.18;8.70;;;;;;;20.18;82.57;99301.06;1686632;84;21009;-76
2021/07/04 04:00:14;;;;;;;10.63;8.83;;;;;;;20.29;82.53;99293.71;1708054;82;22486;-77
2021/07/04 04:02:43;;;;;;;12.85;9.53;;;;;;;20.39;82.50;99293.27;1706626;84;21710;-77
2021/07/04 04:05:12;;;;;;;11.20;9.13;;;;;;;20.45;82.47;99292.95;1686615;84;21380;-76
2021/07/04 04:07:41;;;;;;;10.88;9.75;;;;;;;20.50;82.45;99291.81;1707552;82;20983;-76
2021/07/04 04:10:10;;;;;;;11.20;10.03;;;;;;;20.55;82.44;99299.52;1707053;83;21364;-77
2021/07/04 04:12:37;;;;;;;11.18;10.05;;;;;;;20.59;82.37;99295.91;1708221;82;21799;-77
2021/07/04 04:15:07;;;;;;;11.18;9.53;;;;;;;20.63;82.34;99293.61;1706600;84;20982;-77
2021/07/04 04:17:35;;;;;;;10.82;9.65;;;;;;;20.69;82.28;99288.74;1706780;84;21478;-77
2021/07/04 04:20:05;;;;;;;10.25;9.25;;;;;;;20.77;82.14;99287.16;1723716;82;21459;-77
2021/07/04 04:22:32;;;;;;;10.50;9.35;;;;;;;20.76;81.88;99285.00;1735320;82;21068;-77
2021/07/04 04:25:00;;;;;;;11.73;9.70;;;;;;;20.75;81.66;99285.19;1715912;81;22664;-77
2021/07/04 04:27:27;;;;;;;13.55;9.65;;;;;;;20.74;81.57;99285.70;1706667;82;21044;-77
2021/07/04 04:29:55;;;;;;;11.03;9.95;;;;;;;20.79;81.53;99285.08;1706729;82;20993;-76
2021/07/04 04:32:23;;;;;;;11.97;10.78;;;;;;;20.84;81.49;99282.56;1728905;81;21028;-77
2021/07/04 04:34:51;;;;;;;13.85;10.82;;;;;;;20.92;81.46;99291.70;1706819;82;20961;-76
2021/07/04 04:37:17;;;;;;;13.10;11.80;;;;;;;20.96;81.42;99296.14;1686475;83;22299;-77
2021/07/04 04:39:43;;;;;;;13.18;11.57;;;;;;;20.99;81.32;99299.20;1706812;82;21472;-77
2021/07/04 04:42:10;;;;;;;12.65;11.12;;;;;;;21.02;81.21;99297.42;1708170;82;20961;-76
2021/07/04 04:44:37;;;;;;;12.25;10.88;;;;;;;21.08;81.14;99291.20;1720105;82;21068;-76
2021/07/04 04:47:05;;;;;;;13.72;11.55;;;;;;;21.16;81.12;99300.87;1720398;82;20996;-76
2021/07/04 04:49:33;;;;;;;13.15;11.12;;;;;;;21.23;81.05;99289.58;1720910;82;22216;-76
2021/07/04 04:52:03;;;;;;;13.10;11.75;;;;;;;21.32;80.91;99303.56;1721878;82;20953;-76
2021/07/04 04:54:30;;;;;;;12.07;10.78;;;;;;;21.37;80.68;99305.92;1720273;82;21519;-75
2021/07/04 04:56:56;;;;;;;12.85;10.90;;;;;;;21.42;80.42;99301.22;1735592;82;21484;-76
2021/07/04 04:59:23;;;;;;;12.80;10.80;;;;;;;21.48;80.28;99297.67;1725207;82;21051;-75
2021/07/04 05:01:49;;;;;;;14.18;10.65;;;;;;;21.57;80.18;99296.36;1726102;82;21848;-75
2021/07/04 05:04:16;;;;;;;11.60;10.10;;;;;;;21.67;80.12;99302.06;1738200;82;20989;-77
2021/07/04 05:06:42;;;;;;;14.83;10.78;;;;;;;21.76;79.75;99298.58;1750551;82;21080;-77
2021/07/04 05:09:09;;;;;;;12.63;11.35;;;;;;;21.85;79.42;99298.60;1749681;82;20965;-77
2021/07/04 05:11:35;;;;;;;11.75;10.65;;;;;;;21.90;78.98;99292.55;1748268;80;21475;-77
2021/07/04 05:14:02;;;;;;;11.55;10.35;;;;;;;21.91;78.65;99295.56;1749334;82;21839;-77
2021/07/04 05:16:28;;;;;;;11.55;10.35;;;;;;;21.94;78.50;99291.08;1724516;82;20962;-77
2021/07/04 05:18:55;;;;;;;11.20;10.10;;;;;;;21.97;78.23;99296.82;1720293;83;21044;-77
2021/07/04 05:21:21;;;;;;;11.57;10.25;;;;;;;22.00;78.04;99296.89;1720539;82;20996;-78
2021/07/04 05:23:48;;;;;;;12.63;10.25;;;;;;;22.05;77.81;99280.92;1745480;82;20938;-77
2021/07/04 05:26:18;;;;;;;11.65;10.40;;;;;;;22.15;77.74;99290.67;1750050;82;21855;-77
2021/07/04 05:28:45;;;;;;;13.65;10.08;;;;;;;22.27;77.77;99292.91;1750017;82;20989;-77
2021/07/04 05:31:12;;;;;;;13.25;10.03;;;;;;;22.38;77.26;99286.48;1734146;82;20983;-77
2021/07/04 05:33:38;;;;;;;10.72;9.63;;;;;;;22.45;76.90;99283.20;1730910;82;21017;-76
2021/07/04 05:36:04;;;;;;;16.02;9.30;;;;;;;22.53;76.31;99281.03;1742734;82;21503;-75
2021/07/04 05:38:33;;;;;;;10.40;8.58;;;;;;;22.62;76.02;99288.27;1750253;82;22806;-75
2021/07/04 05:40:59;;;;;;;9.75;8.75;;;;;;;22.69;75.68;99284.16;1749945;81;21385;-75
2021/07/04 05:43:26;;;;;;;14.05;9.33;;;;;;;22.73;74.80;99281.30;1738677;81;20885;-76
2021/07/04 05:45:52;;;;;;;10.05;9.05;;;;;;;22.73;74.33;99279.43;1722658;82;21083;-76
2021/07/04 05:48:18;;;;;;;9.58;8.58;;;;;;;22.72;73.75;99279.14;1723273;82;20985;-76
2021/07/04 05:50:48;;;;;;;11.03;8.33;;;;;;;22.75;73.79;99281.89;1720869;82;22695;-75
2021/07/04 05:53:16;;;;;;;9.23;8.28;;;;;;;22.83;73.42;99278.89;1722382;82;21455;-74
2021/07/04 05:55:43;;;;;;;8.78;7.85;;;;;;;22.90;73.32;99279.66;1720439;82;21032;-75
2021/07/04 05:58:10;;;;;;;9.13;7.67;;;;;;;22.98;72.93;99281.22;1720451;82;21434;-74
2021/07/04 06:00:37;;;;;;;8.73;7.83;;;;;;;23.06;73.03;99282.21;1720184;82;21471;-72
2021/07/04 06:03:03;;;;;;;9.93;8.58;;;;;;;23.18;72.86;99281.74;1720424;82;21787;-74
2021/07/04 06:05:29;;;;;;;10.03;9.00;;;;;;;23.27;71.96;99283.05;1737064;82;20946;-74
2021/07/04 06:07:56;;;;;;;10.45;9.23;;;;;;;23.31;71.66;99278.02;1744938;82;21468;-73
2021/07/04 06:10:23;;;;;;;12.82;9.68;;;;;;;23.32;71.25;99281.82;1744772;80;21036;-73
2021/07/04 06:12:49;;;;;;;11.33;9.83;;;;;;;23.29;71.28;99283.64;1720575;82;20944;-73
2021/07/04 06:15:16;;;;;;;12.90;9.95;;;;;;;23.25;71.57;99281.09;1720135;83;21523;-73
2021/07/04 06:17:42;;;;;;;10.35;9.35;;;;;;;23.26;71.90;99281.42;1720405;82;21103;-73
2021/07/04 06:20:13;;;;;;;11.38;9.70;;;;;;;23.29;71.94;99284.98;1720221;83;20956;-72
2021/07/04 06:22:39;;;;;;;11.70;10.50;;;;;;;23.29;72.00;99286.33;1727704;82;21334;-74
2021/07/04 06:25:08;;;;;;;11.75;10.65;;;;;;;23.30;71.80;99290.66;1747304;80;20989;-72
2021/07/04 06:27:35;;;;;;;11.83;10.63;;;;;;;23.25;71.82;99293.22;1745743;82;21839;-76
2021/07/04 06:30:03;;;;;;;12.73;10.45;;;;;;;23.24;72.17;99298.84;1733325;82;20938;-77
2021/07/04 06:32:30;;;;;;;11.95;10.78;;;;;;;23.30;72.34;99299.28;1750062;82;20960;-74
2021/07/04 06:34:57;;;;;;;12.58;11.35;;;;;;;23.32;72.49;99302.03;1731280;82;20996;-77
2021/07/04 06:37:23;;;;;;;12.03;10.82;;;;;;;23.35;72.76;99292.13;1720446;82;21072;-71
2021/07/04 06:39:50;;;;;;;12.10;11.00;;;;;;;23.46;72.64;99285.14;1696280;82;21743;-73
2021/07/04 06:42:17;;;;;;;12.30;11.05;;;;;;;23.53;72.04;99287.71;1739882;82;21024;-74
2021/07/04 06:44:43;;;;;;;12.45;10.90;;;;;;;23.60;72.24;99289.81;1735795;81;20997;-74
2021/07/04 06:47:13;;;;;;;16.15;11.75;;;;;;;23.69;72.16;99285.72;1710773;82;21484;-76
2021/07/04 06:49:39;;;;;;;14.03;11.20;;;;;;;23.76;71.77;99284.27;1706521;82;21040;-76
2021/07/04 06:52:06;;;;;;;14.80;10.72;;;;;;;23.81;71.56;99281.67;1705799;84;22233;-76
2021/07/04 06:54:33;;;;;;;12.78;10.30;;;;;;;23.95;71.71;99275.00;1705868;82;21459;-76
2021/07/04 06:59:44;;;;;;;12.20;11.00;;;;;;;24.28;71.58;99275.18;1706640;84;21434;-76
2021/07/04 07:02:11;;;;;;;10.78;9.45;;;;;;;24.46;69.90;99278.81;1686280;84;20993;-75
2021/07/04 07:04:38;;;;;;;11.53;10.32;;;;;;;24.53;70.09;99276.81;1706886;82;22402;-76
2021/07/04 07:07:04;;;;;;;13.72;10.45;;;;;;;24.64;69.81;99273.25;1706522;84;20985;-76
2021/07/04 07:09:31;;;;;;;12.90;10.50;;;;;;;24.80;69.69;99275.70;1706760;83;20961;-76
2021/07/04 07:11:57;;;;;;;13.20;10.82;;;;;;;24.90;68.59;99271.87;1722873;82;20978;-76
2021/07/04 07:14:24;;;;;;;11.35;10.18;;;;;;;24.86;68.32;99273.92;1734859;82;21519;-76
2021/07/04 07:16:52;;;;;;;11.38;10.28;;;;;;;24.82;67.89;99274.95;1736125;82;21710;-74
2021/07/04 07:19:19;;;;;;;10.78;9.45;;;;;;;24.72;68.19;99269.36;1736220;81;20931;-74
2021/07/04 07:21:45;;;;;;;10.80;9.80;;;;;;;24.73;68.60;99273.16;1736012;82;21056;-75
2021/07/04 07:24:12;;;;;;;10.85;9.85;;;;;;;24.89;68.54;99270.20;1736030;82;20946;-76
2021/07/04 07:26:40;;;;;;;10.80;9.70;;;;;;;25.03;68.19;99276.17;1735307;81;20981;-75
2021/07/04 07:29:07;;;;;;;10.75;9.65;;;;;;;25.05;67.53;99278.09;1735971;82;22633;-75
2021/07/04 07:31:36;;;;;;;9.80;8.88;;;;;;;25.08;67.92;99281.12;1735035;82;21026;-75
2021/07/04 07:34:03;;;;;;;11.40;9.55;;;;;;;25.10;67.23;99284.42;1736028;82;20946;-75
2021/07/04 07:36:30;;;;;;;9.63;8.63;;;;;;;25.04;67.33;99277.28;1728646;82;20970;-76
2021/07/04 07:38:57;;;;;;;10.32;9.30;;;;;;;25.11;67.96;99284.70;1705464;84;21060;-75
2021/07/04 07:41:23;;;;;;;13.13;9.08;;;;;;;25.25;66.01;99288.45;1685227;83;22211;-75
2021/07/04 07:43:50;;;;;;;11.40;9.40;;;;;;;25.28;66.03;99286.06;1708829;82;21103;-77
2021/07/04 07:46:17;;;;;;;12.60;8.38;;;;;;;25.43;65.89;99289.57;1712945;83;21091;-75
2021/07/04 07:48:44;;;;;;;13.22;8.90;;;;;;;25.53;66.12;99293.79;1729190;82;21503;-75
2021/07/04 07:51:13;;;;;;;12.95;8.40;;;;;;;25.70;66.10;99291.13;1741065;82;21020;-75
2021/07/04 07:53:42;;;;;;;13.83;8.80;;;;;;;25.88;65.52;99289.52;1725178;82;22224;-74
2021/07/04 07:56:09;;;;;;;10.18;9.08;;;;;;;26.08;64.56;99298.45;1712737;83;21024;-76
2021/07/04 07:58:37;;;;;;;12.30;8.80;;;;;;;26.14;63.55;99292.56;1711327;82;21045;-73
2021/07/04 08:01:04;;;;;;;12.05;9.08;;;;;;;26.19;63.18;99289.41;1712995;82;21032;-76
2021/07/04 08:03:31;;;;;;;13.18;9.35;;;;;;;26.13;62.75;99294.45;1713014;83;21083;-76
2021/07/04 08:05:57;;;;;;;10.68;9.45;;;;;;;26.05;63.25;99285.41;1732077;82;22137;-77
2021/07/04 08:08:24;;;;;;;9.60;8.70;;;;;;;26.09;63.61;99278.98;1742841;82;21004;-75
2021/07/04 08:10:51;;;;;;;12.13;9.58;;;;;;;26.24;63.71;99278.63;1735980;82;21479;-76
2021/07/04 08:13:17;;;;;;;10.13;8.98;;;;;;;26.46;63.65;99289.52;1712806;83;21037;-76
2021/07/04 08:15:44;;;;;;;15.72;8.90;;;;;;;26.64;62.31;99285.69;1712930;83;21031;-76
2021/07/04 08:18:10;;;;;;;12.13;8.63;;;;;;;26.65;60.96;99288.67;1712917;83;22237;-77
2021/07/04 08:20:37;;;;;;;9.93;8.03;;;;;;;26.58;60.76;99283.97;1713635;83;21036;-75
2021/07/04 08:23:03;;;;;;;12.70;8.35;;;;;;;26.51;61.43;99288.22;1715360;82;21080;-76
2021/07/04 08:25:30;;;;;;;10.98;8.38;;;;;;;26.61;61.76;99286.17;1714681;83;20997;-75
2021/07/04 08:27:56;;;;;;;10.15;8.40;;;;;;;26.68;61.29;99291.40;1715011;83;20988;-80
2021/07/04 08:30:23;;;;;;;9.65;8.58;;;;;;;26.84;61.89;99291.87;1686628;83;22841;-78
2021/07/04 08:32:49;;;;;;;12.03;8.43;;;;;;;26.89;60.98;99289.73;1715032;83;21040;-80
2021/07/04 08:35:15;;;;;;;12.25;8.25;;;;;;;26.76;60.03;99293.13;1714608;83;21041;-80
2021/07/04 08:37:42;;;;;;;10.55;7.08;;;;;;;26.68;60.50;99293.58;1714566;83;21006;-78
2021/07/04 08:40:09;;;;;;;26.75;8.83;;;;;;;26.73;60.29;99284.16;1716936;82;21022;-79
2021/07/04 08:42:35;;;;;;;11.55;7.67;;;;;;;26.80;60.40;99286.12;1744504;82;22177;-78
2021/07/04 08:45:03;;;;;;;149.82;12.30;;;;;;;26.95;60.63;99292.25;1748287;81;20937;-79
2021/07/04 08:47:29;;;;;;;10.05;6.95;;;;;;;27.14;59.36;99294.10;1749957;82;20937;-79
2021/07/04 08:49:56;;;;;;;11.65;7.85;;;;;;;27.30;57.83;99295.86;1750130;82;20964;-78
2021/07/04 08:52:22;;;;;;;12.13;7.78;;;;;;;27.40;57.84;99296.49;1749318;80;20981;-77
2021/07/04 08:54:49;;;;;;;11.35;8.40;;;;;;;27.47;59.07;99284.89;1720482;83;22218;-77
2021/07/04 08:57:19;;;;;;;12.95;8.58;;;;;;;27.62;58.73;99291.81;1743369;82;21513;-77
2021/07/04 08:59:46;;;;;;;9.25;7.83;;;;;;;27.64;58.66;99287.48;1750216;82;21001;-77
2021/07/04 09:02:15;;;;;;;10.08;8.43;;;;;;;27.65;57.79;99289.11;1750298;82;21514;-78
2021/07/04 09:05:02;;;;;;;9.10;7.87;;;;;;;27.47;56.96;99285.44;1750362;82;20937;-78
2021/07/04 09:07:29;;;;;;;10.15;8.48;;;;;;;27.44;57.80;99274.58;1750335;82;21865;-75
2021/07/04 09:09:58;;;;;;;12.45;7.87;;;;;;;27.63;58.64;99281.78;1750542;82;20989;-76
2021/07/04 09:12:42;;;;;;;9.63;8.60;;;;;;;27.82;57.20;99272.18;1746977;82;20997;-79
2021/07/04 09:15:18;;;;;;;9.60;8.20;;;;;;;27.95;56.53;99270.89;1720887;82;20969;-76
2021/07/04 09:17:47;;;;;;;11.38;8.73;;;;;;;28.02;57.35;99277.45;1720425;83;21499;-76
2021/07/04 09:20:19;;;;;;;10.53;8.38;;;;;;;28.23;57.91;99277.84;1720712;83;21825;-77
2021/07/04 09:22:49;;;;;;;13.20;8.33;;;;;;;28.43;56.51;99271.17;1729014;82;21444;-77
2021/07/04 09:25:28;;;;;;;13.90;8.43;;;;;;;28.56;56.56;99277.19;1750521;82;20969;-78
2021/07/04 09:28:06;;;;;;;11.93;8.28;;;;;;;28.67;56.65;99282.95;1743534;82;21001;-78
2021/07/04 09:30:44;;;;;;;10.58;8.10;;;;;;;28.78;55.74;99280.00;1721266;82;21094;-77
2021/07/04 09:33:20;;;;;;;13.78;8.48;;;;;;;28.80;55.93;99280.54;1706682;82;21866;-78
2021/07/04 09:36:06;;;;;;;12.37;8.70;;;;;;;28.90;55.61;99272.98;1749989;82;20938;-77
2021/07/04 09:38:40;;;;;;;8.98;8.08;;;;;;;28.75;54.56;99269.64;1749758;82;21036;-77
2021/07/04 09:41:13;;;;;;;11.12;8.33;;;;;;;28.58;55.49;99269.61;1747284;80;21008;-80
2021/07/04 09:43:40;;;;;;;10.28;8.00;;;;;;;28.72;55.81;99269.37;1749536;81;21420;-78
2021/07/04 09:46:10;;;;;;;10.95;8.58;;;;;;;28.93;55.58;99272.98;1714303;82;22450;-77
2021/07/04 09:48:45;;;;;;;12.07;8.28;;;;;;;29.11;55.69;99272.47;1734071;82;20977;-77
2021/07/04 09:51:21;;;;;;;10.23;8.20;;;;;;;29.26;55.14;99268.97;1736446;82;20954;-78
2021/07/04 09:53:54;;;;;;;12.70;8.20;;;;;;;29.13;53.79;99266.76;1736497;82;20965;-78
2021/07/04 09:56:32;;;;;;;12.13;8.63;;;;;;;29.01;54.36;99270.55;1736509;81;20997;-78
2021/07/04 09:59:01;;;;;;;10.38;8.53;;;;;;;29.06;54.82;99261.61;1735850;82;22866;-81
2021/07/04 10:01:42;;;;;;;9.65;7.97;;;;;;;29.23;55.25;99262.69;1736556;82;20998;-80
2021/07/04 10:04:31;;;;;;;10.35;8.18;;;;;;;29.40;54.71;99256.98;1735145;82;20945;-79
2021/07/04 10:07:03;;;;;;;9.28;8.10;;;;;;;29.57;54.57;99251.58;1720511;81;21535;-79
2021/07/04 10:09:28;;;;;;;9.20;8.25;;;;;;;29.76;52.61;99237.40;1734936;82;21002;-74
2021/07/04 10:11:56;;;;;;;11.75;8.50;;;;;;;29.76;52.61;99237.40;1726336;82;21860;-74
2021/07/04 10:14:23;;;;;;;13.38;8.58;;;;;;;29.77;52.89;99233.59;1706652;84;21401;-73
2021/07/04 10:16:51;;;;;;;9.40;7.90;;;;;;;29.72;52.92;99233.58;1706724;82;21001;-76
2021/07/04 10:19:24;;;;;;;12.25;7.83;;;;;;;29.71;53.15;99230.05;1706677;84;20962;-75
2021/07/04 10:22:01;;;;;;;10.78;7.75;;;;;;;29.84;53.59;99230.85;1707951;82;20985;-75
2021/07/04 10:24:29;;;;;;;9.08;8.18;;;;;;;30.10;53.41;99226.70;1706747;83;21864;-76
2021/07/04 10:26:57;;;;;;;90.80;11.40;;;;;;;30.39;52.68;99224.14;1687167;83;21012;-76
2021/07/04 10:29:27;;;;;;;15.15;8.28;;;;;;;30.48;50.92;99227.91;1706968;84;21088;-76
2021/07/04 10:31:53;;;;;;;13.58;8.70;;;;;;;30.47;51.04;99232.55;1706785;84;21543;-76
2021/07/04 10:34:25;;;;;;;10.10;8.03;;;;;;;30.32;51.20;99231.81;1706798;84;20949;-75
2021/07/04 10:37:01;;;;;;;114.90;16.48;;;;;;;30.31;51.80;99232.91;1706662;82;20954;-74
2021/07/04 10:39:30;;;;;;;12.18;8.15;;;;;;;30.36;52.26;99239.69;1707959;82;21005;-75
2021/07/04 10:42:03;;;;;;;16.52;8.20;;;;;;;30.18;51.32;99237.03;1706739;84;21006;-74
2021/07/04 10:44:50;;;;;;;9.70;8.03;;;;;;;29.90;51.46;99238.45;1708753;82;21044;-75
2021/07/04 10:47:23;;;;;;;15.15;8.38;;;;;;;29.72;52.27;99247.19;1730520;82;21013;-75
2021/07/04 10:50:10;;;;;;;;;;;;;;;29.71;51.96;99244.20;1746890;82;21846;-75
2021/07/04 10:52:51;;;;;;;12.82;8.15;;;;;;;29.59;52.52;99239.05;1744244;81;20939;-74
2021/07/04 10:55:15;;;;;;;8.83;7.92;;;;;;;29.81;52.28;99236.02;1732174;82;21079;-75
2021/07/04 10:58:00;;;;;;;13.98;8.20;;;;;;;30.15;52.31;99243.86;1714634;83;21388;-74
2021/07/04 11:00:39;;;;;;;9.53;7.67;;;;;;;30.29;51.47;99239.16;1714677;83;21024;-75
2021/07/04 11:03:11;;;;;;;11.33;7.67;;;;;;;30.52;51.02;99240.45;1686576;83;21793;-75
2021/07/04 11:05:42;;;;;;;11.18;7.80;;;;;;;30.64;49.76;99236.31;1714768;82;20992;-75
2021/07/04 11:08:14;;;;;;;10.75;7.55;;;;;;;30.56;50.14;99237.41;1714641;83;20996;-73
2021/07/04 11:11:00;;;;;;;10.82;7.10;;;;;;;30.44;49.90;99236.38;1714800;83;21380;-74
2021/07/04 11:13:42;;;;;;;9.60;7.05;;;;;;;30.46;50.07;99239.64;1715488;82;20993;-74
2021/07/04 11:16:16;;;;;;;10.78;7.15;;;;;;;30.51;49.60;99234.18;1714939;83;21864;-74
2021/07/04 11:18:54;;;;;;;8.10;7.10;;;;;;;30.62;49.56;99238.48;1714782;83;21063;-75
2021/07/04 11:21:24;;;;;;;9.75;7.33;;;;;;;30.73;49.14;99231.90;1714765;83;21114;-76
2021/07/04 11:24:15;;;;;;;8.30;6.67;;;;;;;30.57;49.81;99228.95;1714443;82;20965;-76
2021/07/04 11:26:42;;;;;;;10.20;7.05;;;;;;;30.61;49.63;99234.13;1682692;82;21380;-75
2021/07/04 11:29:12;;;;;;;11.38;6.78;;;;;;;30.72;50.02;99230.27;1715431;82;22192;-75
2021/07/04 11:31:43;;;;;;;8.05;6.83;;;;;;;30.97;49.76;99227.09;1714413;83;20993;-76
2021/07/04 11:34:08;;;;;;;7.70;6.40;;;;;;;31.21;49.96;99223.95;1714156;83;21005;-74
2021/07/04 11:36:35;;;;;;;7.47;6.67;;;;;;;31.49;49.29;99233.27;1687305;83;21020;-75
2021/07/04 11:39:11;;;;;;;8.85;6.62;;;;;;;31.65;48.03;99223.55;1714457;83;20970;-76